Latest  Newer  Older  Last 2 hours slideshow  Last 24 hours slideshow  Refresh every 5 minutes 
Current image  Latest image  Rain/snow radar  Cloud coverage sat images 

All time is UTC (add 2 hours to UTC in wintertime, 3 hours to UTC in DST for Latvia local time)

2021/11/30 20:50 EVRA 302050Z 27006KT 240V320 9999 -SHSN SCT026CB OVC032 M01/M05 Q0987 NOSIG
2021/11/30 20:50 EVLA 302050Z AUTO 35009KT 320V030 9999 -SN BKN036/// OVC056/// 01/M05 Q0991
2021/11/30 20:50 EVVA 302050Z AUTO 33016KT 310V010 9999 FEW036 BKN042 OVC048 01/M06 Q0990
2021/11/30 20:50 EYKA 302050Z 27003KT 4300 0700E BR PRFG NSC M06/M07 Q0990
2021/11/30 20:50 EYPA 302050Z 05003KT 9999 FEW033 SCT039 BKN062 M02/M03 Q0992
2021/11/30 20:50 EYSA 302050Z 29008KT 9999 SCT037 OVC050 M04/M07 Q0989 NOSIG
2021/11/30 20:50 EYVI 302050Z 16002KT 3000 BR SCT022 M05/M05 Q0989 NOSIG
2021/11/30 16:20 EEKA 301620Z 33022KT 9999 BKN019 M03/M06 Q0986
2021/11/30 20:50 EEKE 302050Z AUTO 34010KT 300V010 9999NDV -SN OVC029 M02/M06 Q0988

2021/11/30 20:50 EETN 302050Z 32014KT 9999 DRSN OVC010 M07/M09 Q0984 NOSIG
2021/11/30 20:50 EETU 302050Z AUTO 30010KT 260V320 9999 -SN OVC011/// M07/M09 Q0982
   RIGA AIRPORT     EVRA               56 55N  023 58E   10   X     T          6 LV
   LIEPAJA INTL     EVLA        26406  56 31N  021 06E    4   X                8 LV
   VENTPILS         EVVA               57 21N  021 33E    6   X                8 LV
   KAUNAS           EYKA               54 54N  023 55E   77   X     T          6 LT
   PALANGA INTL     EYPA               55 55N  021 03E   10   X                6 LT
   SIAULIAI INTL    EYSA               55 54N  023 24E  135   X     T          6 LT
   VILNIUS INTL     EYVI        26730  54 38N  025 17E  197   X     T          6 LT
   KARDLA           EEKA        26116  58 59N  022 50E    4   X                8 EE
   KURESSAARE       EEKE               58 14N  022 31E    4   X                8 EE
   PARNU            EEPU               58 25N  024 28E   14   X                8 EE
   TALLINN          EETN        26038  59 24N  024 49E   40   X     T          8 EE
   TARTU            EETU               58 19N  026 41E   67   X                8 EE